Аэропорт: Минеральные Воды. Минеральные Воды

ICAO: URMM

METAR:
2021-01-24 18:30:00
URMM 241830Z 12005MPS 4000 -FZDZ BR OVC003 M02/M03 Q1018 R12/420149 NOSIG RMK QBB090 MT OBSC QFE735/0981
METAR:
2021-01-24 15:43:00
TAF AMD URMM 241543Z 2415/2515 08003G08MPS 0300 FZFG OVC002 TXM00/2512Z TNM07/2503Z TEMPO 2415/2509 VRB01MPS 1500 BR OVC003 BECMG 2509/2511 3100 BR OVC004 TEMPO 2511/2515 0300 FZFG OVC002